sensor_id;sensor_type;location;lat;lon;timestamp;P1;durP1;ratioP1;P2;durP2;ratioP2
75165;SDS011;63747;48.042;10.088;2024-02-21T00:02:40;8.70;;;3.10;;
75165;SDS011;63747;48.042;10.088;2024-02-21T00:05:41;9.00;;;3.30;;
75165;SDS011;63747;48.042;10.088;2024-02-21T00:08:41;6.47;;;2.90;;
75165;SDS011;63747;48.042;10.088;2024-02-21T00:11:42;7.90;;;3.40;;
75165;SDS011;63747;48.042;10.088;2024-02-21T00:14:43;8.33;;;2.83;;
75165;SDS011;63747;48.042;10.088;2024-02-21T00:17:44;11.37;;;3.57;;
75165;SDS011;63747;48.042;10.088;2024-02-21T00:20:45;6.25;;;3.03;;
75165;SDS011;63747;48.042;10.088;2024-02-21T00:23:45;7.50;;;3.77;;
75165;SDS011;63747;48.042;10.088;2024-02-21T00:26:46;11.00;;;3.20;;
75165;SDS011;63747;48.042;10.088;2024-02-21T00:29:47;8.37;;;3.17;;
75165;SDS011;63747;48.042;10.088;2024-02-21T00:32:47;8.17;;;3.50;;
75165;SDS011;63747;48.042;10.088;2024-02-21T00:35:48;8.63;;;3.23;;
75165;SDS011;63747;48.042;10.088;2024-02-21T00:38:49;7.87;;;3.07;;
75165;SDS011;63747;48.042;10.088;2024-02-21T00:41:50;12.40;;;3.33;;
75165;SDS011;63747;48.042;10.088;2024-02-21T00:44:50;8.03;;;2.93;;
75165;SDS011;63747;48.042;10.088;2024-02-21T00:47:51;9.37;;;3.20;;
75165;SDS011;63747;48.042;10.088;2024-02-21T00:50:52;9.00;;;3.30;;
75165;SDS011;63747;48.042;10.088;2024-02-21T00:53:52;6.87;;;3.00;;
75165;SDS011;63747;48.042;10.088;2024-02-21T00:56:53;7.73;;;3.17;;
75165;SDS011;63747;48.042;10.088;2024-02-21T00:59:54;6.50;;;3.10;;
75165;SDS011;63747;48.042;10.088;2024-02-21T01:02:54;8.80;;;3.10;;
75165;SDS011;63747;48.042;10.088;2024-02-21T01:05:55;7.67;;;3.00;;
75165;SDS011;63747;48.042;10.088;2024-02-21T01:08:56;6.67;;;2.80;;
75165;SDS011;63747;48.042;10.088;2024-02-21T01:11:56;7.33;;;2.70;;
75165;SDS011;63747;48.042;10.088;2024-02-21T01:14:57;5.90;;;2.80;;
75165;SDS011;63747;48.042;10.088;2024-02-21T01:17:58;8.53;;;2.57;;
75165;SDS011;63747;48.042;10.088;2024-02-21T01:20:58;7.43;;;2.80;;
75165;SDS011;63747;48.042;10.088;2024-02-21T01:23:59;7.90;;;2.87;;
75165;SDS011;63747;48.042;10.088;2024-02-21T01:27:00;7.77;;;3.00;;
75165;SDS011;63747;48.042;10.088;2024-02-21T01:30:00;9.03;;;2.53;;
75165;SDS011;63747;48.042;10.088;2024-02-21T01:33:01;7.33;;;2.70;;
75165;SDS011;63747;48.042;10.088;2024-02-21T01:36:02;5.63;;;2.40;;
75165;SDS011;63747;48.042;10.088;2024-02-21T01:39:03;8.02;;;3.38;;
75165;SDS011;63747;48.042;10.088;2024-02-21T01:42:04;8.00;;;3.53;;
75165;SDS011;63747;48.042;10.088;2024-02-21T01:45:05;8.70;;;3.60;;
75165;SDS011;63747;48.042;10.088;2024-02-21T01:48:06;9.10;;;3.42;;
75165;SDS011;63747;48.042;10.088;2024-02-21T01:51:07;7.47;;;3.20;;
75165;SDS011;63747;48.042;10.088;2024-02-21T01:54:07;8.33;;;3.10;;
75165;SDS011;63747;48.042;10.088;2024-02-21T01:57:09;9.27;;;3.30;;
75165;SDS011;63747;48.042;10.088;2024-02-21T02:00:11;7.63;;;3.20;;
75165;SDS011;63747;48.042;10.088;2024-02-21T02:03:14;7.07;;;2.75;;
75165;SDS011;63747;48.042;10.088;2024-02-21T02:06:18;5.30;;;2.55;;
75165;SDS011;63747;48.042;10.088;2024-02-21T02:09:18;5.33;;;3.00;;
75165;SDS011;63747;48.042;10.088;2024-02-21T02:12:19;5.60;;;2.13;;
75165;SDS011;63747;48.042;10.088;2024-02-21T02:15:21;8.63;;;2.65;;
75165;SDS011;63747;48.042;10.088;2024-02-21T02:18:21;6.17;;;2.77;;
75165;SDS011;63747;48.042;10.088;2024-02-21T02:21:35;4.67;;;1.90;;
75165;SDS011;63747;48.042;10.088;2024-02-21T02:24:43;6.40;;;2.20;;
75165;SDS011;63747;48.042;10.088;2024-02-21T02:27:43;6.83;;;1.90;;
75165;SDS011;63747;48.042;10.088;2024-02-21T02:30:45;4.93;;;1.90;;
75165;SDS011;63747;48.042;10.088;2024-02-21T02:33:45;4.30;;;1.77;;
75165;SDS011;63747;48.042;10.088;2024-02-21T02:36:48;5.35;;;1.60;;
75165;SDS011;63747;48.042;10.088;2024-02-21T02:39:49;4.43;;;1.80;;
75165;SDS011;63747;48.042;10.088;2024-02-21T02:42:50;3.47;;;1.80;;
75165;SDS011;63747;48.042;10.088;2024-02-21T02:45:51;2.55;;;1.40;;
75165;SDS011;63747;48.042;10.088;2024-02-21T02:48:52;2.90;;;1.83;;
75165;SDS011;63747;48.042;10.088;2024-02-21T02:51:52;2.23;;;1.53;;
75165;SDS011;63747;48.042;10.088;2024-02-21T02:54:53;2.97;;;1.70;;
75165;SDS011;63747;48.042;10.088;2024-02-21T02:57:55;5.68;;;1.90;;
75165;SDS011;63747;48.042;10.088;2024-02-21T03:00:57;6.25;;;1.88;;
75165;SDS011;63747;48.042;10.088;2024-02-21T03:03:57;3.87;;;1.57;;
75165;SDS011;63747;48.042;10.088;2024-02-21T03:06:58;3.73;;;1.77;;
75165;SDS011;63747;48.042;10.088;2024-02-21T03:09:59;3.27;;;1.80;;
75165;SDS011;63747;48.042;10.088;2024-02-21T03:12:59;4.37;;;1.90;;
75165;SDS011;63747;48.042;10.088;2024-02-21T03:16:00;4.87;;;1.83;;
75165;SDS011;63747;48.042;10.088;2024-02-21T03:19:01;5.40;;;1.87;;
75165;SDS011;63747;48.042;10.088;2024-02-21T03:22:01;4.60;;;1.97;;
75165;SDS011;63747;48.042;10.088;2024-02-21T03:25:02;5.03;;;1.90;;
75165;SDS011;63747;48.042;10.088;2024-02-21T03:28:04;4.68;;;2.03;;
75165;SDS011;63747;48.042;10.088;2024-02-21T03:31:04;3.93;;;1.60;;
75165;SDS011;63747;48.042;10.088;2024-02-21T03:34:05;2.63;;;1.50;;
75165;SDS011;63747;48.042;10.088;2024-02-21T03:37:06;2.40;;;1.30;;
75165;SDS011;63747;48.042;10.088;2024-02-21T03:40:07;5.80;;;1.37;;
75165;SDS011;63747;48.042;10.088;2024-02-21T03:43:09;3.33;;;1.38;;
75165;SDS011;63747;48.042;10.088;2024-02-21T03:46:10;3.03;;;1.40;;
75165;SDS011;63747;48.042;10.088;2024-02-21T03:49:10;3.37;;;1.40;;
75165;SDS011;63747;48.042;10.088;2024-02-21T03:52:11;3.78;;;1.20;;
75165;SDS011;63747;48.042;10.088;2024-02-21T03:55:12;3.60;;;1.30;;
75165;SDS011;63747;48.042;10.088;2024-02-21T03:58:13;3.83;;;1.00;;
75165;SDS011;63747;48.042;10.088;2024-02-21T04:01:15;1.70;;;1.00;;
75165;SDS011;63747;48.042;10.088;2024-02-21T04:04:16;2.58;;;0.75;;
75165;SDS011;63747;48.042;10.088;2024-02-21T04:07:17;2.17;;;1.00;;
75165;SDS011;63747;48.042;10.088;2024-02-21T04:10:18;2.90;;;1.00;;
75165;SDS011;63747;48.042;10.088;2024-02-21T04:13:18;1.90;;;1.00;;
75165;SDS011;63747;48.042;10.088;2024-02-21T04:16:19;2.03;;;0.90;;
75165;SDS011;63747;48.042;10.088;2024-02-21T04:19:20;1.93;;;0.90;;
75165;SDS011;63747;48.042;10.088;2024-02-21T04:22:20;1.70;;;0.70;;
75165;SDS011;63747;48.042;10.088;2024-02-21T04:25:21;2.67;;;1.57;;
75165;SDS011;63747;48.042;10.088;2024-02-21T04:28:22;2.17;;;1.23;;
75165;SDS011;63747;48.042;10.088;2024-02-21T04:31:22;2.20;;;1.10;;
75165;SDS011;63747;48.042;10.088;2024-02-21T04:34:23;2.47;;;1.13;;
75165;SDS011;63747;48.042;10.088;2024-02-21T04:37:24;4.67;;;1.40;;
75165;SDS011;63747;48.042;10.088;2024-02-21T04:40:25;5.57;;;1.10;;
75165;SDS011;63747;48.042;10.088;2024-02-21T04:43:25;4.43;;;1.50;;
75165;SDS011;63747;48.042;10.088;2024-02-21T04:46:26;3.17;;;1.40;;
75165;SDS011;63747;48.042;10.088;2024-02-21T04:49:27;2.93;;;1.40;;
75165;SDS011;63747;48.042;10.088;2024-02-21T04:52:27;3.33;;;1.57;;
75165;SDS011;63747;48.042;10.088;2024-02-21T04:55:28;3.90;;;1.60;;
75165;SDS011;63747;48.042;10.088;2024-02-21T04:58:29;4.43;;;1.50;;
75165;SDS011;63747;48.042;10.088;2024-02-21T05:01:29;4.40;;;1.70;;
75165;SDS011;63747;48.042;10.088;2024-02-21T05:04:31;1.98;;;1.15;;
75165;SDS011;63747;48.042;10.088;2024-02-21T05:07:31;2.87;;;1.17;;
75165;SDS011;63747;48.042;10.088;2024-02-21T05:10:32;3.60;;;2.10;;
75165;SDS011;63747;48.042;10.088;2024-02-21T05:13:33;3.13;;;1.60;;
75165;SDS011;63747;48.042;10.088;2024-02-21T05:16:33;3.77;;;1.53;;
75165;SDS011;63747;48.042;10.088;2024-02-21T05:19:34;1.90;;;1.50;;
75165;SDS011;63747;48.042;10.088;2024-02-21T05:22:35;3.30;;;1.67;;
75165;SDS011;63747;48.042;10.088;2024-02-21T05:25:35;3.47;;;1.70;;
75165;SDS011;63747;48.042;10.088;2024-02-21T05:28:36;3.20;;;1.57;;
75165;SDS011;63747;48.042;10.088;2024-02-21T05:32:10;3.83;;;1.60;;
75165;SDS011;63747;48.042;10.088;2024-02-21T05:35:04;3.28;;;1.75;;
75165;SDS011;63747;48.042;10.088;2024-02-21T05:38:04;2.13;;;1.57;;
75165;SDS011;63747;48.042;10.088;2024-02-21T05:41:11;3.85;;;1.50;;
75165;SDS011;63747;48.042;10.088;2024-02-21T05:44:12;3.93;;;1.50;;
75165;SDS011;63747;48.042;10.088;2024-02-21T05:47:12;3.67;;;1.70;;
75165;SDS011;63747;48.042;10.088;2024-02-21T05:50:15;2.80;;;1.33;;
75165;SDS011;63747;48.042;10.088;2024-02-21T05:53:16;3.10;;;1.40;;
75165;SDS011;63747;48.042;10.088;2024-02-21T05:56:16;4.30;;;1.80;;
75165;SDS011;63747;48.042;10.088;2024-02-21T05:59:18;2.70;;;1.67;;
75165;SDS011;63747;48.042;10.088;2024-02-21T06:02:18;3.50;;;1.73;;
75165;SDS011;63747;48.042;10.088;2024-02-21T06:05:20;3.53;;;1.35;;
75165;SDS011;63747;48.042;10.088;2024-02-21T06:08:20;8.27;;;1.67;;
75165;SDS011;63747;48.042;10.088;2024-02-21T06:11:21;3.53;;;1.30;;
75165;SDS011;63747;48.042;10.088;2024-02-21T06:14:22;5.40;;;1.50;;
75165;SDS011;63747;48.042;10.088;2024-02-21T06:17:22;5.00;;;1.43;;
75165;SDS011;63747;48.042;10.088;2024-02-21T06:20:23;6.43;;;1.83;;
75165;SDS011;63747;48.042;10.088;2024-02-21T06:23:24;7.77;;;1.63;;
75165;SDS011;63747;48.042;10.088;2024-02-21T06:26:24;2.77;;;1.50;;
75165;SDS011;63747;48.042;10.088;2024-02-21T06:29:25;4.55;;;1.67;;
75165;SDS011;63747;48.042;10.088;2024-02-21T06:32:26;6.37;;;1.67;;
75165;SDS011;63747;48.042;10.088;2024-02-21T06:35:27;5.53;;;1.80;;
75165;SDS011;63747;48.042;10.088;2024-02-21T06:38:27;4.37;;;1.53;;
75165;SDS011;63747;48.042;10.088;2024-02-21T06:41:28;6.40;;;1.57;;
75165;SDS011;63747;48.042;10.088;2024-02-21T06:44:30;2.85;;;1.50;;
75165;SDS011;63747;48.042;10.088;2024-02-21T06:47:32;3.97;;;1.80;;
75165;SDS011;63747;48.042;10.088;2024-02-21T06:50:32;5.60;;;2.00;;
75165;SDS011;63747;48.042;10.088;2024-02-21T06:53:33;2.77;;;1.63;;
75165;SDS011;63747;48.042;10.088;2024-02-21T06:56:34;3.50;;;1.90;;
75165;SDS011;63747;48.042;10.088;2024-02-21T06:59:35;5.23;;;2.40;;
75165;SDS011;63747;48.042;10.088;2024-02-21T07:02:36;6.57;;;1.87;;
75165;SDS011;63747;48.042;10.088;2024-02-21T07:05:36;4.67;;;1.60;;
75165;SDS011;63747;48.042;10.088;2024-02-21T07:08:37;2.17;;;1.30;;
75165;SDS011;63747;48.042;10.088;2024-02-21T07:11:38;3.13;;;1.60;;
75165;SDS011;63747;48.042;10.088;2024-02-21T07:14:39;3.37;;;1.60;;
75165;SDS011;63747;48.042;10.088;2024-02-21T07:17:40;4.20;;;1.60;;
75165;SDS011;63747;48.042;10.088;2024-02-21T07:20:40;4.27;;;1.77;;
75165;SDS011;63747;48.042;10.088;2024-02-21T07:23:41;5.07;;;1.40;;
75165;SDS011;63747;48.042;10.088;2024-02-21T07:26:44;2.28;;;1.42;;
75165;SDS011;63747;48.042;10.088;2024-02-21T07:29:45;2.27;;;1.30;;
75165;SDS011;63747;48.042;10.088;2024-02-21T07:32:49;5.05;;;1.30;;
75165;SDS011;63747;48.042;10.088;2024-02-21T07:35:50;4.43;;;1.63;;
75165;SDS011;63747;48.042;10.088;2024-02-21T07:38:51;2.43;;;1.33;;
75165;SDS011;63747;48.042;10.088;2024-02-21T07:41:52;4.87;;;1.40;;
75165;SDS011;63747;48.042;10.088;2024-02-21T07:44:53;5.20;;;1.10;;
75165;SDS011;63747;48.042;10.088;2024-02-21T07:47:54;2.13;;;1.20;;
75165;SDS011;63747;48.042;10.088;2024-02-21T07:50:54;4.47;;;1.33;;
75165;SDS011;63747;48.042;10.088;2024-02-21T07:53:55;5.57;;;1.30;;
75165;SDS011;63747;48.042;10.088;2024-02-21T07:56:56;4.67;;;1.07;;
75165;SDS011;63747;48.042;10.088;2024-02-21T07:59:56;2.30;;;0.70;;
75165;SDS011;63747;48.042;10.088;2024-02-21T08:02:57;0.70;;;0.37;;
75165;SDS011;63747;48.042;10.088;2024-02-21T08:05:58;0.83;;;0.40;;
75165;SDS011;63747;48.042;10.088;2024-02-21T08:08:58;1.07;;;0.40;;
75165;SDS011;63747;48.042;10.088;2024-02-21T08:12:00;0.88;;;0.40;;
75165;SDS011;63747;48.042;10.088;2024-02-21T08:15:01;0.60;;;0.30;;
75165;SDS011;63747;48.042;10.088;2024-02-21T08:18:06;0.55;;;0.30;;
75165;SDS011;63747;48.042;10.088;2024-02-21T08:21:08;2.08;;;0.50;;
75165;SDS011;63747;48.042;10.088;2024-02-21T08:24:08;0.47;;;0.30;;
75165;SDS011;63747;48.042;10.088;2024-02-21T08:27:10;0.52;;;0.32;;
75165;SDS011;63747;48.042;10.088;2024-02-21T08:30:11;1.13;;;0.70;;
75165;SDS011;63747;48.042;10.088;2024-02-21T08:33:12;1.02;;;0.30;;
75165;SDS011;63747;48.042;10.088;2024-02-21T08:36:19;1.27;;;0.40;;
75165;SDS011;63747;48.042;10.088;2024-02-21T08:39:20;1.30;;;0.47;;
75165;SDS011;63747;48.042;10.088;2024-02-21T08:42:21;2.13;;;0.47;;
75165;SDS011;63747;48.042;10.088;2024-02-21T08:45:21;0.30;;;0.23;;
75165;SDS011;63747;48.042;10.088;2024-02-21T08:48:22;1.23;;;0.40;;
75165;SDS011;63747;48.042;10.088;2024-02-21T08:51:25;2.55;;;0.52;;
75165;SDS011;63747;48.042;10.088;2024-02-21T08:54:26;1.55;;;0.40;;
75165;SDS011;63747;48.042;10.088;2024-02-21T08:57:27;1.40;;;0.50;;
75165;SDS011;63747;48.042;10.088;2024-02-21T09:00:28;0.82;;;0.50;;
75165;SDS011;63747;48.042;10.088;2024-02-21T09:03:29;0.40;;;0.30;;
75165;SDS011;63747;48.042;10.088;2024-02-21T09:06:31;2.08;;;0.50;;
75165;SDS011;63747;48.042;10.088;2024-02-21T09:09:36;2.20;;;0.60;;
75165;SDS011;63747;48.042;10.088;2024-02-21T09:12:38;1.88;;;0.50;;
75165;SDS011;63747;48.042;10.088;2024-02-21T09:15:39;2.10;;;0.40;;
75165;SDS011;63747;48.042;10.088;2024-02-21T09:18:39;1.73;;;0.50;;
75165;SDS011;63747;48.042;10.088;2024-02-21T09:21:40;1.90;;;0.50;;
75165;SDS011;63747;48.042;10.088;2024-02-21T09:24:41;1.60;;;0.67;;
75165;SDS011;63747;48.042;10.088;2024-02-21T09:27:43;2.53;;;0.50;;
75165;SDS011;63747;48.042;10.088;2024-02-21T09:30:45;2.25;;;0.60;;
75165;SDS011;63747;48.042;10.088;2024-02-21T09:33:45;1.40;;;0.57;;
75165;SDS011;63747;48.042;10.088;2024-02-21T09:36:46;0.97;;;0.50;;
75165;SDS011;63747;48.042;10.088;2024-02-21T09:39:47;2.63;;;0.77;;
75165;SDS011;63747;48.042;10.088;2024-02-21T09:42:48;1.20;;;0.70;;
75165;SDS011;63747;48.042;10.088;2024-02-21T09:45:49;1.02;;;0.50;;
75165;SDS011;63747;48.042;10.088;2024-02-21T09:52:09;2.70;;;0.73;;
75165;SDS011;63747;48.042;10.088;2024-02-21T09:55:13;1.45;;;0.60;;
75165;SDS011;63747;48.042;10.088;2024-02-21T09:58:15;0.90;;;0.50;;
75165;SDS011;63747;48.042;10.088;2024-02-21T10:01:16;2.35;;;0.90;;
75165;SDS011;63747;48.042;10.088;2024-02-21T10:04:17;1.60;;;0.57;;
75165;SDS011;63747;48.042;10.088;2024-02-21T10:07:18;2.58;;;0.95;;
75165;SDS011;63747;48.042;10.088;2024-02-21T10:10:23;3.00;;;0.63;;
75165;SDS011;63747;48.042;10.088;2024-02-21T10:13:24;1.77;;;0.70;;
75165;SDS011;63747;48.042;10.088;2024-02-21T10:16:26;1.58;;;0.60;;
75165;SDS011;63747;48.042;10.088;2024-02-21T10:19:27;2.63;;;0.70;;
75165;SDS011;63747;48.042;10.088;2024-02-21T10:22:28;2.10;;;1.00;;
75165;SDS011;63747;48.042;10.088;2024-02-21T10:25:31;3.00;;;0.60;;
75165;SDS011;63747;48.042;10.088;2024-02-21T10:28:32;1.20;;;0.60;;
75165;SDS011;63747;48.042;10.088;2024-02-21T10:31:32;1.65;;;0.80;;
75165;SDS011;63747;48.042;10.088;2024-02-21T10:34:33;2.20;;;0.80;;
75165;SDS011;63747;48.042;10.088;2024-02-21T10:37:34;1.50;;;0.70;;
75165;SDS011;63747;48.042;10.088;2024-02-21T10:40:35;1.87;;;0.60;;
75165;SDS011;63747;48.042;10.088;2024-02-21T10:43:40;1.33;;;0.87;;
75165;SDS011;63747;48.042;10.088;2024-02-21T10:46:41;1.95;;;0.73;;
75165;SDS011;63747;48.042;10.088;2024-02-21T10:49:44;2.53;;;0.70;;
75165;SDS011;63747;48.042;10.088;2024-02-21T10:53:00;1.58;;;0.60;;
75165;SDS011;63747;48.042;10.088;2024-02-21T10:59:22;2.30;;;0.90;;
75165;SDS011;63747;48.042;10.088;2024-02-21T11:02:23;2.00;;;0.70;;
75165;SDS011;63747;48.042;10.088;2024-02-21T11:05:25;1.88;;;0.63;;
75165;SDS011;63747;48.042;10.088;2024-02-21T11:08:28;2.33;;;0.70;;
75165;SDS011;63747;48.042;10.088;2024-02-21T11:11:29;1.25;;;0.60;;
75165;SDS011;63747;48.042;10.088;2024-02-21T11:14:33;1.02;;;0.50;;
75165;SDS011;63747;48.042;10.088;2024-02-21T11:17:39;1.08;;;0.60;;
75165;SDS011;63747;48.042;10.088;2024-02-21T11:20:39;1.77;;;0.68;;
75165;SDS011;63747;48.042;10.088;2024-02-21T11:23:40;1.45;;;0.60;;
75165;SDS011;63747;48.042;10.088;2024-02-21T11:26:41;1.15;;;0.50;;
75165;SDS011;63747;48.042;10.088;2024-02-21T11:29:45;1.33;;;0.60;;
75165;SDS011;63747;48.042;10.088;2024-02-21T11:32:46;0.90;;;0.50;;
75165;SDS011;63747;48.042;10.088;2024-02-21T11:35:47;1.30;;;0.55;;
75165;SDS011;63747;48.042;10.088;2024-02-21T11:38:48;2.15;;;0.60;;
75165;SDS011;63747;48.042;10.088;2024-02-21T11:42:04;1.07;;;0.60;;
75165;SDS011;63747;48.042;10.088;2024-02-21T11:45:07;1.60;;;0.57;;
75165;SDS011;63747;48.042;10.088;2024-02-21T11:48:09;1.73;;;0.70;;
75165;SDS011;63747;48.042;10.088;2024-02-21T11:51:09;4.20;;;0.85;;
75165;SDS011;63747;48.042;10.088;2024-02-21T11:54:10;3.13;;;0.60;;
75165;SDS011;63747;48.042;10.088;2024-02-21T11:57:13;1.17;;;0.60;;
75165;SDS011;63747;48.042;10.088;2024-02-21T12:00:14;2.22;;;0.80;;
75165;SDS011;63747;48.042;10.088;2024-02-21T12:03:16;1.67;;;0.90;;
75165;SDS011;63747;48.042;10.088;2024-02-21T12:06:17;2.25;;;1.60;;
75165;SDS011;63747;48.042;10.088;2024-02-21T12:09:20;1.95;;;1.27;;
75165;SDS011;63747;48.042;10.088;2024-02-21T12:12:22;1.23;;;0.88;;
75165;SDS011;63747;48.042;10.088;2024-02-21T12:15:23;1.65;;;1.40;;
75165;SDS011;63747;48.042;10.088;2024-02-21T12:18:24;1.02;;;0.68;;
75165;SDS011;63747;48.042;10.088;2024-02-21T12:21:29;1.60;;;0.65;;
75165;SDS011;63747;48.042;10.088;2024-02-21T12:24:32;1.23;;;0.65;;
75165;SDS011;63747;48.042;10.088;2024-02-21T12:27:33;1.58;;;0.70;;
75165;SDS011;63747;48.042;10.088;2024-02-21T12:30:35;2.35;;;1.20;;
75165;SDS011;63747;48.042;10.088;2024-02-21T12:33:39;1.80;;;0.80;;
75165;SDS011;63747;48.042;10.088;2024-02-21T12:36:43;2.28;;;0.70;;
75165;SDS011;63747;48.042;10.088;2024-02-21T12:39:47;0.82;;;0.45;;
75165;SDS011;63747;48.042;10.088;2024-02-21T12:42:47;1.65;;;0.50;;
75165;SDS011;63747;48.042;10.088;2024-02-21T12:45:48;1.00;;;0.52;;
75165;SDS011;63747;48.042;10.088;2024-02-21T12:48:50;0.70;;;0.50;;
75165;SDS011;63747;48.042;10.088;2024-02-21T12:54:51;0.90;;;0.50;;
75165;SDS011;63747;48.042;10.088;2024-02-21T12:57:52;1.57;;;0.53;;
75165;SDS011;63747;48.042;10.088;2024-02-21T13:00:53;1.23;;;0.73;;
75165;SDS011;63747;48.042;10.088;2024-02-21T13:03:53;2.17;;;0.68;;
75165;SDS011;63747;48.042;10.088;2024-02-21T13:06:55;0.70;;;0.47;;
75165;SDS011;63747;48.042;10.088;2024-02-21T13:09:56;0.80;;;0.50;;
75165;SDS011;63747;48.042;10.088;2024-02-21T13:12:57;1.42;;;0.50;;
75165;SDS011;63747;48.042;10.088;2024-02-21T13:15:57;1.27;;;0.40;;
75165;SDS011;63747;48.042;10.088;2024-02-21T13:18:59;0.65;;;0.40;;
75165;SDS011;63747;48.042;10.088;2024-02-21T13:22:00;2.20;;;1.23;;
75165;SDS011;63747;48.042;10.088;2024-02-21T13:25:02;1.60;;;0.40;;
75165;SDS011;63747;48.042;10.088;2024-02-21T13:28:04;2.42;;;0.43;;
75165;SDS011;63747;48.042;10.088;2024-02-21T13:31:05;1.45;;;0.38;;
75165;SDS011;63747;48.042;10.088;2024-02-21T13:34:05;0.50;;;0.30;;
75165;SDS011;63747;48.042;10.088;2024-02-21T13:37:06;1.50;;;0.60;;
75165;SDS011;63747;48.042;10.088;2024-02-21T13:40:09;1.48;;;0.60;;
75165;SDS011;63747;48.042;10.088;2024-02-21T13:43:10;0.73;;;0.40;;
75165;SDS011;63747;48.042;10.088;2024-02-21T13:46:11;1.02;;;0.40;;
75165;SDS011;63747;48.042;10.088;2024-02-21T13:49:12;1.15;;;0.50;;
75165;SDS011;63747;48.042;10.088;2024-02-21T13:52:13;0.68;;;0.40;;
75165;SDS011;63747;48.042;10.088;2024-02-21T13:55:14;1.33;;;0.60;;
75165;SDS011;63747;48.042;10.088;2024-02-21T13:58:15;1.30;;;0.35;;
75165;SDS011;63747;48.042;10.088;2024-02-21T14:01:16;1.98;;;0.50;;
75165;SDS011;63747;48.042;10.088;2024-02-21T14:04:17;1.13;;;0.47;;
75165;SDS011;63747;48.042;10.088;2024-02-21T14:07:17;0.80;;;0.40;;
75165;SDS011;63747;48.042;10.088;2024-02-21T14:10:18;1.17;;;0.38;;
75165;SDS011;63747;48.042;10.088;2024-02-21T14:13:19;1.57;;;0.70;;
75165;SDS011;63747;48.042;10.088;2024-02-21T14:16:20;0.40;;;0.40;;
75165;SDS011;63747;48.042;10.088;2024-02-21T14:19:21;0.40;;;0.30;;
75165;SDS011;63747;48.042;10.088;2024-02-21T14:22:22;2.30;;;0.65;;
75165;SDS011;63747;48.042;10.088;2024-02-21T14:25:23;1.45;;;0.50;;
75165;SDS011;63747;48.042;10.088;2024-02-21T14:31:25;2.37;;;0.53;;
75165;SDS011;63747;48.042;10.088;2024-02-21T14:34:25;2.45;;;0.70;;
75165;SDS011;63747;48.042;10.088;2024-02-21T14:37:26;1.75;;;0.60;;
75165;SDS011;63747;48.042;10.088;2024-02-21T14:40:27;1.48;;;0.70;;
75165;SDS011;63747;48.042;10.088;2024-02-21T14:43:30;1.25;;;0.50;;
75165;SDS011;63747;48.042;10.088;2024-02-21T14:46:30;2.70;;;0.80;;
75165;SDS011;63747;48.042;10.088;2024-02-21T14:49:31;5.15;;;1.30;;
75165;SDS011;63747;48.042;10.088;2024-02-21T14:52:32;1.92;;;1.00;;
75165;SDS011;63747;48.042;10.088;2024-02-21T14:55:33;4.70;;;2.13;;
75165;SDS011;63747;48.042;10.088;2024-02-21T15:01:38;1.10;;;0.47;;
75165;SDS011;63747;48.042;10.088;2024-02-21T15:04:39;0.80;;;0.40;;
75165;SDS011;63747;48.042;10.088;2024-02-21T15:07:39;1.35;;;0.60;;
75165;SDS011;63747;48.042;10.088;2024-02-21T15:10:40;1.88;;;0.43;;
75165;SDS011;63747;48.042;10.088;2024-02-21T15:16:42;1.27;;;0.60;;
75165;SDS011;63747;48.042;10.088;2024-02-21T15:19:44;2.65;;;0.82;;
75165;SDS011;63747;48.042;10.088;2024-02-21T15:22:45;2.35;;;0.77;;
75165;SDS011;63747;48.042;10.088;2024-02-21T15:25:45;3.03;;;0.80;;
75165;SDS011;63747;48.042;10.088;2024-02-21T15:28:46;1.63;;;0.70;;
75165;SDS011;63747;48.042;10.088;2024-02-21T15:31:47;2.50;;;0.87;;
75165;SDS011;63747;48.042;10.088;2024-02-21T15:34:47;2.40;;;0.77;;
75165;SDS011;63747;48.042;10.088;2024-02-21T15:37:48;3.40;;;0.80;;
75165;SDS011;63747;48.042;10.088;2024-02-21T15:40:49;1.40;;;0.70;;
75165;SDS011;63747;48.042;10.088;2024-02-21T15:43:50;1.75;;;0.90;;
75165;SDS011;63747;48.042;10.088;2024-02-21T15:46:51;2.13;;;0.90;;
75165;SDS011;63747;48.042;10.088;2024-02-21T15:49:52;2.33;;;0.80;;
75165;SDS011;63747;48.042;10.088;2024-02-21T15:52:53;5.30;;;2.22;;
75165;SDS011;63747;48.042;10.088;2024-02-21T15:55:55;8.75;;;4.65;;
75165;SDS011;63747;48.042;10.088;2024-02-21T15:58:55;1.33;;;0.75;;
75165;SDS011;63747;48.042;10.088;2024-02-21T16:01:56;1.50;;;0.70;;
75165;SDS011;63747;48.042;10.088;2024-02-21T16:04:57;3.67;;;1.10;;
75165;SDS011;63747;48.042;10.088;2024-02-21T16:07:57;2.90;;;0.90;;
75165;SDS011;63747;48.042;10.088;2024-02-21T16:10:58;3.20;;;1.25;;
75165;SDS011;63747;48.042;10.088;2024-02-21T16:14:00;1.15;;;1.05;;
75165;SDS011;63747;48.042;10.088;2024-02-21T16:17:02;1.30;;;0.70;;
75165;SDS011;63747;48.042;10.088;2024-02-21T16:20:05;3.75;;;1.52;;
75165;SDS011;63747;48.042;10.088;2024-02-21T16:23:09;2.88;;;1.38;;
75165;SDS011;63747;48.042;10.088;2024-02-21T16:26:09;3.97;;;1.93;;
75165;SDS011;63747;48.042;10.088;2024-02-21T16:29:11;3.88;;;1.90;;
75165;SDS011;63747;48.042;10.088;2024-02-21T16:32:12;3.53;;;2.08;;
75165;SDS011;63747;48.042;10.088;2024-02-21T16:35:13;3.37;;;2.10;;
75165;SDS011;63747;48.042;10.088;2024-02-21T16:38:13;3.45;;;1.98;;
75165;SDS011;63747;48.042;10.088;2024-02-21T16:41:14;1.83;;;1.47;;
75165;SDS011;63747;48.042;10.088;2024-02-21T16:44:15;2.13;;;1.23;;
75165;SDS011;63747;48.042;10.088;2024-02-21T16:47:15;1.83;;;1.03;;
75165;SDS011;63747;48.042;10.088;2024-02-21T16:50:17;3.25;;;1.92;;
75165;SDS011;63747;48.042;10.088;2024-02-21T16:53:17;13.47;;;9.43;;
75165;SDS011;63747;48.042;10.088;2024-02-21T16:56:18;11.73;;;7.20;;
75165;SDS011;63747;48.042;10.088;2024-02-21T16:59:19;5.73;;;3.10;;
75165;SDS011;63747;48.042;10.088;2024-02-21T17:02:20;6.00;;;2.70;;
75165;SDS011;63747;48.042;10.088;2024-02-21T17:05:21;4.18;;;1.90;;
75165;SDS011;63747;48.042;10.088;2024-02-21T17:08:24;4.63;;;2.10;;
75165;SDS011;63747;48.042;10.088;2024-02-21T17:11:25;8.27;;;1.83;;
75165;SDS011;63747;48.042;10.088;2024-02-21T17:14:25;6.30;;;1.80;;
75165;SDS011;63747;48.042;10.088;2024-02-21T17:17:26;5.20;;;2.87;;
75165;SDS011;63747;48.042;10.088;2024-02-21T17:20:27;6.65;;;3.83;;
75165;SDS011;63747;48.042;10.088;2024-02-21T17:23:28;15.50;;;5.90;;
75165;SDS011;63747;48.042;10.088;2024-02-21T17:26:28;7.70;;;4.47;;
75165;SDS011;63747;48.042;10.088;2024-02-21T17:29:29;5.50;;;3.97;;
75165;SDS011;63747;48.042;10.088;2024-02-21T17:32:31;3.20;;;2.47;;
75165;SDS011;63747;48.042;10.088;2024-02-21T17:35:34;3.53;;;2.10;;
75165;SDS011;63747;48.042;10.088;2024-02-21T17:38:35;4.47;;;2.20;;
75165;SDS011;63747;48.042;10.088;2024-02-21T17:41:36;4.93;;;1.90;;
75165;SDS011;63747;48.042;10.088;2024-02-21T17:44:36;2.53;;;1.70;;
75165;SDS011;63747;48.042;10.088;2024-02-21T17:47:38;1.83;;;1.40;;
75165;SDS011;63747;48.042;10.088;2024-02-21T17:50:39;3.00;;;1.40;;
75165;SDS011;63747;48.042;10.088;2024-02-21T17:53:40;2.83;;;1.90;;
75165;SDS011;63747;48.042;10.088;2024-02-21T17:56:41;2.73;;;1.50;;
75165;SDS011;63747;48.042;10.088;2024-02-21T17:59:41;4.77;;;2.17;;
75165;SDS011;63747;48.042;10.088;2024-02-21T18:02:43;4.13;;;3.25;;
75165;SDS011;63747;48.042;10.088;2024-02-21T18:05:43;3.40;;;2.03;;
75165;SDS011;63747;48.042;10.088;2024-02-21T18:08:44;4.22;;;2.95;;
75165;SDS011;63747;48.042;10.088;2024-02-21T18:11:45;5.23;;;2.70;;
75165;SDS011;63747;48.042;10.088;2024-02-21T18:14:45;3.53;;;2.20;;